Pagrindinis puslapis
METAR-TAF:

METAR-TAF

Oro uostai :

Šo de Fonas, Šveicarija

platuma: 47-05-03N, ilguma: 006-47-37E, Aukštis: 1027 m

Dabartinis oras

Ataskaita buvo paskelbta 30 minutes, ne 18:20 UTC
Vėjas 7 kt iš Rytų/Šiaurės Rytų, svyruoja nuo Šiaurės/Šiaurės Rytų ir Rytų
Temperatūra 10°C
Drėgmė 62%
Slėgis 1024 hPa
Matomumas 10 km arba daugiau
nėra debesų žemiau 1500 m ir nėra kamuolinių lietaus debesų

METAR: LSGC 191820Z AUTO 06007KT 020V090 CAVOK 10/03 Q1024

Laikas: 20:50 (18:50 UTC)

Prognozė

Ataskaita buvo paskelbta 4 valandos ir 25 minutes, ne 14:25 UTC
Prognozė galioja nuo 19 metu 15 UTC su 19 metu 24 UTC
Vėjas 10 kt iš Šiaurės Rytų su gūsio iki 20 kt
Matomumas 10 km arba daugiau
nėra debesų žemiau 1500 m ir nėra kamuolinių lietaus debesų

TAF: LSGC 191425Z 1915/1924 05010G20KT CAVOK

Orai ataskaitas ir orų prognozės (METAR, TAF).

turimą stotys yra geltonos ir raudonos taškus žemėlapyje.

Perkelti pele per norėdami pamatyti stoties vardą.

Tada spustelėkite, norėdami matyti oro stebėjimo ir prognozės.

Norėdami pakeisti žemėlapį: spustelėkite ant žalios mygtukų su juodo kryžiaus žemyn,; žalią mygtuką su brūkšneliu, jei norite nutolinti; arba žalių rodyklių gretimoms žemėlapius.


METAR-TAF: